sensor_id;sensor_type;location;lat;lon;timestamp;pressure;altitude;pressure_sealevel;temperature;humidity
60228;BME280;46091;46.512;6.626;2023-08-20T00:01:36;97131.84;;;29.99;39.40
60228;BME280;46091;46.512;6.626;2023-08-20T00:03:39;97135.38;;;29.99;39.30
60228;BME280;46091;46.512;6.626;2023-08-20T00:05:43;97139.22;;;29.98;39.46
60228;BME280;46091;46.512;6.626;2023-08-20T00:07:46;97134.88;;;29.97;39.50
60228;BME280;46091;46.512;6.626;2023-08-20T00:09:48;97140.34;;;29.97;39.68
60228;BME280;46091;46.512;6.626;2023-08-20T00:11:51;97139.22;;;29.98;39.85
60228;BME280;46091;46.512;6.626;2023-08-20T00:13:55;97138.72;;;29.96;40.07
60228;BME280;46091;46.512;6.626;2023-08-20T00:15:58;97139.03;;;29.95;40.26
60228;BME280;46091;46.512;6.626;2023-08-20T00:18:01;97140.97;;;29.94;40.40
60228;BME280;46091;46.512;6.626;2023-08-20T00:20:07;97141.28;;;29.93;40.38
60228;BME280;46091;46.512;6.626;2023-08-20T00:22:12;97147.84;;;29.92;40.66
60228;BME280;46091;46.512;6.626;2023-08-20T00:24:14;97145.44;;;29.90;40.67
60228;BME280;46091;46.512;6.626;2023-08-20T00:26:18;97145.44;;;29.90;40.91
60228;BME280;46091;46.512;6.626;2023-08-20T00:28:21;97149.56;;;29.88;41.05
60228;BME280;46091;46.512;6.626;2023-08-20T00:30:24;97153.91;;;29.89;41.05
60228;BME280;46091;46.512;6.626;2023-08-20T00:32:27;97148.28;;;29.85;40.97
60228;BME280;46091;46.512;6.626;2023-08-20T00:34:30;97145.06;;;29.83;41.01
60228;BME280;46091;46.512;6.626;2023-08-20T00:36:33;97150.50;;;29.83;41.37
60228;BME280;46091;46.512;6.626;2023-08-20T00:38:36;97148.91;;;29.82;41.53
60228;BME280;46091;46.512;6.626;2023-08-20T00:40:39;97141.84;;;29.81;41.22
60228;BME280;46091;46.512;6.626;2023-08-20T00:42:41;97147.59;;;29.79;41.27
60228;BME280;46091;46.512;6.626;2023-08-20T00:44:45;97150.59;;;29.78;41.46
60228;BME280;46091;46.512;6.626;2023-08-20T00:46:49;97146.28;;;29.77;41.47
60228;BME280;46091;46.512;6.626;2023-08-20T00:48:53;97155.56;;;29.76;41.43
60228;BME280;46091;46.512;6.626;2023-08-20T00:50:56;97155.88;;;29.74;41.42
60228;BME280;46091;46.512;6.626;2023-08-20T00:52:59;97148.50;;;29.75;41.28
60228;BME280;46091;46.512;6.626;2023-08-20T00:55:07;97160.53;;;29.74;41.50
60228;BME280;46091;46.512;6.626;2023-08-20T00:57:10;97160.53;;;29.74;41.61
60228;BME280;46091;46.512;6.626;2023-08-20T00:59:14;97161.63;;;29.73;41.43
60228;BME280;46091;46.512;6.626;2023-08-20T01:01:17;97160.03;;;29.72;41.57
60228;BME280;46091;46.512;6.626;2023-08-20T01:03:22;97153.28;;;29.69;41.62
60228;BME280;46091;46.512;6.626;2023-08-20T01:05:25;97161.47;;;29.69;41.42
60228;BME280;46091;46.512;6.626;2023-08-20T01:07:34;97160.66;;;29.69;41.38
60228;BME280;46091;46.512;6.626;2023-08-20T01:09:45;97162.84;;;29.67;41.41
60228;BME280;46091;46.512;6.626;2023-08-20T01:11:56;97167.50;;;29.66;41.48
60228;BME280;46091;46.512;6.626;2023-08-20T01:14:00;97170.53;;;29.65;41.48
60228;BME280;46091;46.512;6.626;2023-08-20T01:16:03;97163.47;;;29.64;41.51
60228;BME280;46091;46.512;6.626;2023-08-20T01:18:06;97168.44;;;29.62;41.54
60228;BME280;46091;46.512;6.626;2023-08-20T01:20:12;97165.72;;;29.62;41.42
60228;BME280;46091;46.512;6.626;2023-08-20T01:22:48;97164.41;;;29.59;40.93
60228;BME280;46091;46.512;6.626;2023-08-20T01:25:00;97165.22;;;29.60;41.06
60228;BME280;46091;46.512;6.626;2023-08-20T01:27:14;97164.72;;;29.58;41.07
60228;BME280;46091;46.512;6.626;2023-08-20T01:29:24;97166.63;;;29.57;40.97
60228;BME280;46091;46.512;6.626;2023-08-20T01:31:28;97172.09;;;29.57;40.98
60228;BME280;46091;46.512;6.626;2023-08-20T01:33:31;97174.00;;;29.56;41.00
60228;BME280;46091;46.512;6.626;2023-08-20T01:35:34;97165.84;;;29.56;41.01
60228;BME280;46091;46.512;6.626;2023-08-20T01:37:37;97167.44;;;29.58;41.05
60228;BME280;46091;46.512;6.626;2023-08-20T01:39:40;97174.81;;;29.57;41.13
60228;BME280;46091;46.512;6.626;2023-08-20T01:41:43;97177.81;;;29.55;40.98
60228;BME280;46091;46.512;6.626;2023-08-20T01:43:46;97170.44;;;29.56;41.18
60228;BME280;46091;46.512;6.626;2023-08-20T01:45:50;97174.00;;;29.56;41.46
60228;BME280;46091;46.512;6.626;2023-08-20T01:47:53;97175.63;;;29.58;41.54
60228;BME280;46091;46.512;6.626;2023-08-20T01:49:56;97178.63;;;29.56;41.64
60228;BME280;46091;46.512;6.626;2023-08-20T01:52:00;97177.00;;;29.55;41.91
60228;BME280;46091;46.512;6.626;2023-08-20T01:54:03;97183.88;;;29.52;42.16
60228;BME280;46091;46.512;6.626;2023-08-20T01:56:11;97181.16;;;29.52;42.42
60228;BME280;46091;46.512;6.626;2023-08-20T01:58:13;97175.22;;;29.50;42.54
60228;BME280;46091;46.512;6.626;2023-08-20T02:00:16;97174.41;;;29.50;42.70
60228;BME280;46091;46.512;6.626;2023-08-20T02:02:21;97174.72;;;29.48;42.88
60228;BME280;46091;46.512;6.626;2023-08-20T02:04:23;97180.44;;;29.47;42.91
60228;BME280;46091;46.512;6.626;2023-08-20T02:06:26;97183.47;;;29.45;43.02
60228;BME280;46091;46.512;6.626;2023-08-20T02:08:29;97188.13;;;29.45;43.06
60228;BME280;46091;46.512;6.626;2023-08-20T02:10:32;97185.69;;;29.43;43.24
60228;BME280;46091;46.512;6.626;2023-08-20T02:12:35;97186.78;;;29.42;43.24
60228;BME280;46091;46.512;6.626;2023-08-20T02:14:37;97189.03;;;29.40;43.16
60228;BME280;46091;46.512;6.626;2023-08-20T02:16:40;97201.81;;;29.40;43.39
60228;BME280;46091;46.512;6.626;2023-08-20T02:18:45;97195.56;;;29.39;43.61
60228;BME280;46091;46.512;6.626;2023-08-20T02:20:48;97190.13;;;29.39;43.59
60228;BME280;46091;46.512;6.626;2023-08-20T02:22:50;97192.06;;;29.39;43.66
60228;BME280;46091;46.512;6.626;2023-08-20T02:24:53;97192.34;;;29.37;43.65
60228;BME280;46091;46.512;6.626;2023-08-20T02:26:56;97193.47;;;29.36;43.72
60228;BME280;46091;46.512;6.626;2023-08-20T02:28:59;97196.19;;;29.36;43.78
60228;BME280;46091;46.512;6.626;2023-08-20T02:31:04;97196.50;;;29.35;43.97
60228;BME280;46091;46.512;6.626;2023-08-20T02:33:07;97194.06;;;29.33;44.22
60228;BME280;46091;46.512;6.626;2023-08-20T02:35:11;97196.78;;;29.33;44.13
60228;BME280;46091;46.512;6.626;2023-08-20T02:37:17;97200.94;;;29.31;44.13
60228;BME280;46091;46.512;6.626;2023-08-20T02:39:20;97201.22;;;29.29;44.18
60228;BME280;46091;46.512;6.626;2023-08-20T02:41:23;97202.34;;;29.28;44.08
60228;BME280;46091;46.512;6.626;2023-08-20T02:43:26;97210.31;;;29.24;44.07
60228;BME280;46091;46.512;6.626;2023-08-20T02:45:29;97204.56;;;29.26;44.10
60228;BME280;46091;46.512;6.626;2023-08-20T02:47:30;97211.94;;;29.25;43.86
60228;BME280;46091;46.512;6.626;2023-08-20T02:49:34;97204.88;;;29.24;44.14
60228;BME280;46091;46.512;6.626;2023-08-20T02:51:38;97202.47;;;29.23;43.96
60228;BME280;46091;46.512;6.626;2023-08-20T02:53:43;97208.19;;;29.21;44.09
60228;BME280;46091;46.512;6.626;2023-08-20T02:55:46;97203.03;;;29.20;44.10
60228;BME280;46091;46.512;6.626;2023-08-20T02:57:48;97205.28;;;29.18;44.00
60228;BME280;46091;46.512;6.626;2023-08-20T02:59:51;97208.00;;;29.18;43.85
60228;BME280;46091;46.512;6.626;2023-08-20T03:01:54;97199.03;;;29.17;43.93
60228;BME280;46091;46.512;6.626;2023-08-20T03:03:57;97202.06;;;29.16;43.87
60228;BME280;46091;46.512;6.626;2023-08-20T03:06:00;97200.44;;;29.15;43.95
60228;BME280;46091;46.512;6.626;2023-08-20T03:08:05;97205.88;;;29.15;43.79
60228;BME280;46091;46.512;6.626;2023-08-20T03:10:09;97204.28;;;29.14;43.94
60228;BME280;46091;46.512;6.626;2023-08-20T03:12:11;97201.84;;;29.12;43.79
60228;BME280;46091;46.512;6.626;2023-08-20T03:14:14;97208.09;;;29.13;43.79
60228;BME280;46091;46.512;6.626;2023-08-20T03:16:17;97213.56;;;29.13;43.83
60228;BME280;46091;46.512;6.626;2023-08-20T03:18:20;97207.59;;;29.11;44.03
60228;BME280;46091;46.512;6.626;2023-08-20T03:20:23;97211.41;;;29.10;43.57
60228;BME280;46091;46.512;6.626;2023-08-20T03:22:27;97211.72;;;29.08;43.49
60228;BME280;46091;46.512;6.626;2023-08-20T03:24:31;97206.59;;;29.07;43.42
60228;BME280;46091;46.512;6.626;2023-08-20T03:26:34;97207.69;;;29.06;43.31
60228;BME280;46091;46.512;6.626;2023-08-20T03:28:36;97206.09;;;29.05;43.16
60228;BME280;46091;46.512;6.626;2023-08-20T03:30:39;97207.69;;;29.06;43.18
60228;BME280;46091;46.512;6.626;2023-08-20T03:32:43;97202.25;;;29.06;43.09
60228;BME280;46091;46.512;6.626;2023-08-20T03:34:46;97220.19;;;29.07;42.96
60228;BME280;46091;46.512;6.626;2023-08-20T03:36:48;97213.13;;;29.06;42.76
60228;BME280;46091;46.512;6.626;2023-08-20T03:38:51;97206.88;;;29.05;42.62
60228;BME280;46091;46.512;6.626;2023-08-20T03:40:56;97206.88;;;29.05;42.64
60228;BME280;46091;46.512;6.626;2023-08-20T03:42:58;97200.63;;;29.05;42.73
60228;BME280;46091;46.512;6.626;2023-08-20T03:45:01;97200.63;;;29.05;42.46
60228;BME280;46091;46.512;6.626;2023-08-20T03:47:05;97212.34;;;29.05;42.29
60228;BME280;46091;46.512;6.626;2023-08-20T03:49:10;97201.75;;;29.04;42.18
60228;BME280;46091;46.512;6.626;2023-08-20T03:51:13;97203.34;;;29.05;42.50
60228;BME280;46091;46.512;6.626;2023-08-20T03:53:16;97211.53;;;29.05;42.06
60228;BME280;46091;46.512;6.626;2023-08-20T03:55:18;97216.16;;;29.04;42.00
60228;BME280;46091;46.512;6.626;2023-08-20T03:57:22;97210.72;;;29.04;41.96
60228;BME280;46091;46.512;6.626;2023-08-20T03:59:25;97215.34;;;29.04;41.94
60228;BME280;46091;46.512;6.626;2023-08-20T04:01:28;97220.81;;;29.04;41.87
60228;BME280;46091;46.512;6.626;2023-08-20T04:03:31;97220.81;;;29.04;41.87
60228;BME280;46091;46.512;6.626;2023-08-20T04:05:35;97221.91;;;29.03;41.95
60228;BME280;46091;46.512;6.626;2023-08-20T04:07:38;97220.00;;;29.03;41.86
60228;BME280;46091;46.512;6.626;2023-08-20T04:09:41;97224.63;;;29.03;41.81
60228;BME280;46091;46.512;6.626;2023-08-20T04:11:45;97221.09;;;29.02;41.86
60228;BME280;46091;46.512;6.626;2023-08-20T04:14:09;97226.84;;;29.01;41.86
60228;BME280;46091;46.512;6.626;2023-08-20T04:16:32;97229.84;;;28.99;41.86
60228;BME280;46091;46.512;6.626;2023-08-20T04:18:55;97225.81;;;28.96;41.95
60228;BME280;46091;46.512;6.626;2023-08-20T04:20:58;97228.03;;;28.94;42.00
60228;BME280;46091;46.512;6.626;2023-08-20T04:23:01;97228.34;;;28.93;42.12
60228;BME280;46091;46.512;6.626;2023-08-20T04:25:05;97234.09;;;28.91;41.99
60228;BME280;46091;46.512;6.626;2023-08-20T04:27:07;97234.09;;;28.91;42.19
60228;BME280;46091;46.512;6.626;2023-08-20T04:29:12;97235.22;;;28.90;42.12
60228;BME280;46091;46.512;6.626;2023-08-20T04:31:14;97236.31;;;28.89;42.26
60228;BME280;46091;46.512;6.626;2023-08-20T04:33:17;97235.50;;;28.89;42.28
60228;BME280;46091;46.512;6.626;2023-08-20T04:35:21;97237.44;;;28.88;42.44
60228;BME280;46091;46.512;6.626;2023-08-20T04:37:23;97238.47;;;28.87;42.54
60228;BME280;46091;46.512;6.626;2023-08-20T04:39:26;97254.81;;;28.87;42.52
60228;BME280;46091;46.512;6.626;2023-08-20T04:41:29;97251.03;;;28.88;42.80
60228;BME280;46091;46.512;6.626;2023-08-20T04:43:32;97245.03;;;28.86;42.70
60228;BME280;46091;46.512;6.626;2023-08-20T04:45:36;97254.81;;;28.87;42.87
60228;BME280;46091;46.512;6.626;2023-08-20T04:47:39;97246.63;;;28.87;42.94
60228;BME280;46091;46.512;6.626;2023-08-20T04:49:42;97253.19;;;28.86;43.08
60228;BME280;46091;46.512;6.626;2023-08-20T04:51:45;97243.72;;;28.84;43.08
60228;BME280;46091;46.512;6.626;2023-08-20T04:53:47;97248.34;;;28.83;43.14
60228;BME280;46091;46.512;6.626;2023-08-20T04:55:50;97245.94;;;28.82;43.35
60228;BME280;46091;46.512;6.626;2023-08-20T04:57:53;97247.84;;;28.81;43.69
60228;BME280;46091;46.512;6.626;2023-08-20T04:59:56;97248.66;;;28.82;43.57
60228;BME280;46091;46.512;6.626;2023-08-20T05:02:01;97255.22;;;28.81;43.79
60228;BME280;46091;46.512;6.626;2023-08-20T05:04:04;97251.38;;;28.82;43.76
60228;BME280;46091;46.512;6.626;2023-08-20T05:06:07;97253.31;;;28.81;43.85
60228;BME280;46091;46.512;6.626;2023-08-20T05:08:10;97257.63;;;28.82;43.99
60228;BME280;46091;46.512;6.626;2023-08-20T05:10:13;97251.38;;;28.82;44.32
60228;BME280;46091;46.512;6.626;2023-08-20T05:12:16;97253.81;;;28.83;44.34
60228;BME280;46091;46.512;6.626;2023-08-20T05:14:19;97259.25;;;28.83;44.39
60228;BME280;46091;46.512;6.626;2023-08-20T05:16:21;97257.03;;;28.85;44.47
60228;BME280;46091;46.512;6.626;2023-08-20T05:18:26;97264.88;;;28.87;44.81
60228;BME280;46091;46.512;6.626;2023-08-20T05:20:29;97263.56;;;28.84;44.98
60228;BME280;46091;46.512;6.626;2023-08-20T05:22:31;97260.06;;;28.84;45.14
60228;BME280;46091;46.512;6.626;2023-08-20T05:24:35;97260.06;;;28.84;45.43
60228;BME280;46091;46.512;6.626;2023-08-20T05:26:37;97256.53;;;28.83;45.39
60228;BME280;46091;46.512;6.626;2023-08-20T05:28:40;97260.84;;;28.84;45.46
60228;BME280;46091;46.512;6.626;2023-08-20T05:30:43;97262.78;;;28.84;45.51
60228;BME280;46091;46.512;6.626;2023-08-20T05:32:46;97267.09;;;28.85;45.55
60228;BME280;46091;46.512;6.626;2023-08-20T05:34:50;97258.63;;;28.86;45.66
60228;BME280;46091;46.512;6.626;2023-08-20T05:36:53;97260.25;;;28.87;45.71
60228;BME280;46091;46.512;6.626;2023-08-20T05:38:56;97266.53;;;28.88;45.77
60228;BME280;46091;46.512;6.626;2023-08-20T05:40:59;97272.81;;;28.88;45.84
60228;BME280;46091;46.512;6.626;2023-08-20T05:43:02;97278.25;;;28.88;45.94
60228;BME280;46091;46.512;6.626;2023-08-20T05:45:05;97270.88;;;28.89;45.94
60228;BME280;46091;46.512;6.626;2023-08-20T05:47:08;97268.97;;;28.89;46.14
60228;BME280;46091;46.512;6.626;2023-08-20T05:49:12;97266.25;;;28.89;46.07
60228;BME280;46091;46.512;6.626;2023-08-20T05:51:16;97273.31;;;28.90;46.13
60228;BME280;46091;46.512;6.626;2023-08-20T05:53:19;97285.81;;;28.91;46.23
60228;BME280;46091;46.512;6.626;2023-08-20T05:55:22;97280.38;;;28.91;46.36
60228;BME280;46091;46.512;6.626;2023-08-20T05:57:24;97284.69;;;28.92;46.29
60228;BME280;46091;46.512;6.626;2023-08-20T05:59:27;97283.59;;;28.93;46.61
60228;BME280;46091;46.512;6.626;2023-08-20T06:01:31;97280.88;;;28.93;46.50
60228;BME280;46091;46.512;6.626;2023-08-20T06:03:34;97277.03;;;28.94;46.53
60228;BME280;46091;46.512;6.626;2023-08-20T06:05:37;97268.56;;;28.96;46.61
60228;BME280;46091;46.512;6.626;2023-08-20T06:07:41;97280.75;;;28.98;46.46
60228;BME280;46091;46.512;6.626;2023-08-20T06:09:43;97282.09;;;29.01;46.65
60228;BME280;46091;46.512;6.626;2023-08-20T06:11:47;97289.66;;;29.04;46.63
60228;BME280;46091;46.512;6.626;2023-08-20T06:13:51;97282.78;;;29.07;46.54
60228;BME280;46091;46.512;6.626;2023-08-20T06:15:54;97292.81;;;29.11;46.64
60228;BME280;46091;46.512;6.626;2023-08-20T06:17:57;97296.84;;;29.14;46.51
60228;BME280;46091;46.512;6.626;2023-08-20T06:20:00;97291.09;;;29.15;46.54
60228;BME280;46091;46.512;6.626;2023-08-20T06:22:03;97294.59;;;29.16;46.51
60228;BME280;46091;46.512;6.626;2023-08-20T06:24:07;97297.84;;;29.18;46.59
60228;BME280;46091;46.512;6.626;2023-08-20T06:26:11;97305.41;;;29.21;46.59
60228;BME280;46091;46.512;6.626;2023-08-20T06:28:13;97297.75;;;29.23;46.64
60228;BME280;46091;46.512;6.626;2023-08-20T06:30:16;97300.97;;;29.25;46.51
60228;BME280;46091;46.512;6.626;2023-08-20T06:32:18;97303.41;;;29.26;46.43
60228;BME280;46091;46.512;6.626;2023-08-20T06:34:21;97298.75;;;29.27;46.40
60228;BME280;46091;46.512;6.626;2023-08-20T06:36:24;97304.69;;;29.29;46.46
60228;BME280;46091;46.512;6.626;2023-08-20T06:38:27;97302.28;;;29.27;46.37
60228;BME280;46091;46.512;6.626;2023-08-20T06:40:32;97304.69;;;29.29;46.53
60228;BME280;46091;46.512;6.626;2023-08-20T06:42:34;97305.50;;;29.29;46.59
60228;BME280;46091;46.512;6.626;2023-08-20T06:44:41;97307.94;;;29.31;46.44
60228;BME280;46091;46.512;6.626;2023-08-20T06:46:44;97308.72;;;29.32;46.39
60228;BME280;46091;46.512;6.626;2023-08-20T06:48:48;97309.53;;;29.32;46.66
60228;BME280;46091;46.512;6.626;2023-08-20T06:50:51;97307.13;;;29.31;46.40
60228;BME280;46091;46.512;6.626;2023-08-20T06:52:54;97306.31;;;29.30;46.61
60228;BME280;46091;46.512;6.626;2023-08-20T06:54:57;97314.47;;;29.30;46.73
60228;BME280;46091;46.512;6.626;2023-08-20T06:57:01;97309.84;;;29.31;46.72
60228;BME280;46091;46.512;6.626;2023-08-20T06:59:04;97317.72;;;29.32;46.57
60228;BME280;46091;46.512;6.626;2023-08-20T07:01:07;97314.19;;;29.32;46.54
60228;BME280;46091;46.512;6.626;2023-08-20T07:03:09;97316.41;;;29.29;46.69
60228;BME280;46091;46.512;6.626;2023-08-20T07:05:12;97315.59;;;29.29;46.70
60228;BME280;46091;46.512;6.626;2023-08-20T07:07:16;97314.78;;;29.28;46.76
60228;BME280;46091;46.512;6.626;2023-08-20T07:09:19;97311.25;;;29.28;46.64
60228;BME280;46091;46.512;6.626;2023-08-20T07:11:22;97310.94;;;29.29;46.74
60228;BME280;46091;46.512;6.626;2023-08-20T07:13:26;97315.28;;;29.31;46.77
60228;BME280;46091;46.512;6.626;2023-08-20T07:15:29;97314.19;;;29.32;46.37
60228;BME280;46091;46.512;6.626;2023-08-20T07:17:32;97315.59;;;29.29;46.29
60228;BME280;46091;46.512;6.626;2023-08-20T07:19:36;97322.16;;;29.28;46.16
60228;BME280;46091;46.512;6.626;2023-08-20T07:21:39;97315.59;;;29.29;45.96
60228;BME280;46091;46.512;6.626;2023-08-20T07:23:42;97321.03;;;29.29;45.73
60228;BME280;46091;46.512;6.626;2023-08-20T07:25:44;97319.44;;;29.28;45.65
60228;BME280;46091;46.512;6.626;2023-08-20T07:27:48;97308.34;;;29.24;45.26
60228;BME280;46091;46.512;6.626;2023-08-20T07:29:53;97315.41;;;29.25;45.39
60228;BME280;46091;46.512;6.626;2023-08-20T07:31:56;97317.81;;;29.27;45.31
60228;BME280;46091;46.512;6.626;2023-08-20T07:34:01;97319.44;;;29.28;45.25
60228;BME280;46091;46.512;6.626;2023-08-20T07:36:07;97320.22;;;29.28;45.05
60228;BME280;46091;46.512;6.626;2023-08-20T07:38:10;97321.03;;;29.29;45.18
60228;BME280;46091;46.512;6.626;2023-08-20T07:40:13;97324.06;;;29.27;45.11
60228;BME280;46091;46.512;6.626;2023-08-20T07:42:17;97329.50;;;29.27;45.06
60228;BME280;46091;46.512;6.626;2023-08-20T07:44:20;97326.00;;;29.27;44.95
60228;BME280;46091;46.512;6.626;2023-08-20T07:46:24;97326.00;;;29.27;45.11
60228;BME280;46091;46.512;6.626;2023-08-20T07:48:27;97325.19;;;29.26;45.25
60228;BME280;46091;46.512;6.626;2023-08-20T07:50:28;97330.31;;;29.28;45.28
60228;BME280;46091;46.512;6.626;2023-08-20T07:52:32;97327.09;;;29.26;45.09
60228;BME280;46091;46.512;6.626;2023-08-20T07:54:35;97330.94;;;29.25;45.19
60228;BME280;46091;46.512;6.626;2023-08-20T07:56:38;97332.53;;;29.26;45.18
60228;BME280;46091;46.512;6.626;2023-08-20T07:58:41;97338.78;;;29.26;45.09
60228;BME280;46091;46.512;6.626;2023-08-20T08:00:44;97339.59;;;29.27;45.22
60228;BME280;46091;46.512;6.626;2023-08-20T08:02:48;97333.03;;;29.28;45.09
60228;BME280;46091;46.512;6.626;2023-08-20T08:04:51;97330.63;;;29.26;44.84
60228;BME280;46091;46.512;6.626;2023-08-20T08:06:54;97329.81;;;29.26;44.98
60228;BME280;46091;46.512;6.626;2023-08-20T08:09:14;97329.31;;;29.24;44.63
60228;BME280;46091;46.512;6.626;2023-08-20T08:11:17;97333.72;;;29.20;44.36
60228;BME280;46091;46.512;6.626;2023-08-20T08:13:22;97339.78;;;29.17;44.15
60228;BME280;46091;46.512;6.626;2023-08-20T08:15:25;97337.66;;;29.14;43.99
60228;BME280;46091;46.512;6.626;2023-08-20T08:17:28;97338.78;;;29.13;44.06
60228;BME280;46091;46.512;6.626;2023-08-20T08:19:32;97349.66;;;29.13;44.01
60228;BME280;46091;46.512;6.626;2023-08-20T08:21:35;97334.94;;;29.14;44.03
60228;BME280;46091;46.512;6.626;2023-08-20T08:23:38;97345.84;;;29.14;43.81
60228;BME280;46091;46.512;6.626;2023-08-20T08:26:00;97352.09;;;29.14;44.00
60228;BME280;46091;46.512;6.626;2023-08-20T08:28:04;97345.22;;;29.17;43.53
60228;BME280;46091;46.512;6.626;2023-08-20T08:30:27;97339.97;;;29.20;43.58
60228;BME280;46091;46.512;6.626;2023-08-20T08:32:31;97345.97;;;29.22;43.16
60228;BME280;46091;46.512;6.626;2023-08-20T08:34:35;97348.38;;;29.24;43.17
60228;BME280;46091;46.512;6.626;2023-08-20T08:36:39;97348.88;;;29.26;42.92
60228;BME280;46091;46.512;6.626;2023-08-20T08:38:42;97334.97;;;29.27;42.84
60228;BME280;46091;46.512;6.626;2023-08-20T08:40:45;97346.34;;;29.29;42.87
60228;BME280;46091;46.512;6.626;2023-08-20T08:42:49;97339.00;;;29.30;42.47
60228;BME280;46091;46.512;6.626;2023-08-20T08:44:52;97339.78;;;29.31;42.03
60228;BME280;46091;46.512;6.626;2023-08-20T08:46:57;97337.38;;;29.29;41.98
60228;BME280;46091;46.512;6.626;2023-08-20T08:49:00;97340.59;;;29.31;41.86
60228;BME280;46091;46.512;6.626;2023-08-20T08:51:04;97350.09;;;29.34;41.79
60228;BME280;46091;46.512;6.626;2023-08-20T08:53:07;97337.31;;;29.34;41.33
60228;BME280;46091;46.512;6.626;2023-08-20T08:55:10;97345.47;;;29.34;41.32
60228;BME280;46091;46.512;6.626;2023-08-20T08:57:13;97341.63;;;29.35;41.21
60228;BME280;46091;46.512;6.626;2023-08-20T08:59:16;97336.19;;;29.35;41.21
60228;BME280;46091;46.512;6.626;2023-08-20T09:01:19;97336.69;;;29.37;41.18
60228;BME280;46091;46.512;6.626;2023-08-20T09:03:22;97338.81;;;29.40;41.40
60228;BME280;46091;46.512;6.626;2023-08-20T09:05:26;97334.34;;;29.44;40.80
60228;BME280;46091;46.512;6.626;2023-08-20T09:07:30;97332.75;;;29.43;41.05
60228;BME280;46091;46.512;6.626;2023-08-20T09:09:34;97324.78;;;29.47;41.29
60228;BME280;46091;46.512;6.626;2023-08-20T09:11:38;97327.75;;;29.50;40.93
60228;BME280;46091;46.512;6.626;2023-08-20T09:13:42;97327.94;;;29.54;40.86
60228;BME280;46091;46.512;6.626;2023-08-20T09:15:50;97328.16;;;29.58;40.98
60228;BME280;46091;46.512;6.626;2023-08-20T09:17:54;97330.59;;;29.59;40.87
60228;BME280;46091;46.512;6.626;2023-08-20T09:19:57;97328.66;;;29.60;40.92
60228;BME280;46091;46.512;6.626;2023-08-20T09:22:01;97326.13;;;29.63;41.04
60228;BME280;46091;46.512;6.626;2023-08-20T09:24:06;97333.19;;;29.64;40.88
60228;BME280;46091;46.512;6.626;2023-08-20T09:26:09;97323.09;;;29.65;40.71
60228;BME280;46091;46.512;6.626;2023-08-20T09:28:12;97326.31;;;29.67;40.88
60228;BME280;46091;46.512;6.626;2023-08-20T09:30:18;97335.31;;;29.67;40.96
60228;BME280;46091;46.512;6.626;2023-08-20T09:32:24;97331.19;;;29.70;40.83
60228;BME280;46091;46.512;6.626;2023-08-20T09:34:36;97332.00;;;29.70;41.11
60228;BME280;46091;46.512;6.626;2023-08-20T09:36:39;97335.53;;;29.71;41.24
60228;BME280;46091;46.512;6.626;2023-08-20T09:38:42;97338.75;;;29.73;41.49
60228;BME280;46091;46.512;6.626;2023-08-20T09:40:47;97326.72;;;29.74;41.40
60228;BME280;46091;46.512;6.626;2023-08-20T09:42:51;97333.78;;;29.75;41.36
60228;BME280;46091;46.512;6.626;2023-08-20T09:44:54;97334.28;;;29.77;41.81
60228;BME280;46091;46.512;6.626;2023-08-20T09:46:58;97327.44;;;29.79;41.95
60228;BME280;46091;46.512;6.626;2023-08-20T09:49:01;97331.78;;;29.80;41.95
60228;BME280;46091;46.512;6.626;2023-08-20T09:51:10;97324.09;;;29.82;42.05
60228;BME280;46091;46.512;6.626;2023-08-20T09:53:18;97322.50;;;29.81;41.93
60228;BME280;46091;46.512;6.626;2023-08-20T09:55:29;97323.31;;;29.82;41.82
60228;BME280;46091;46.512;6.626;2023-08-20T09:57:36;97320.34;;;29.78;41.64
60228;BME280;46091;46.512;6.626;2023-08-20T09:59:41;97312.19;;;29.78;41.48
60228;BME280;46091;46.512;6.626;2023-08-20T10:01:44;97320.09;;;29.80;40.91
60228;BME280;46091;46.512;6.626;2023-08-20T10:03:49;97318.16;;;29.80;41.05
60228;BME280;46091;46.512;6.626;2023-08-20T10:05:54;97316.25;;;29.81;40.81
60228;BME280;46091;46.512;6.626;2023-08-20T10:07:58;97317.22;;;29.85;40.76
60228;BME280;46091;46.512;6.626;2023-08-20T10:10:04;97320.47;;;29.87;40.61
60228;BME280;46091;46.512;6.626;2023-08-20T10:12:08;97323.69;;;29.89;40.50
60228;BME280;46091;46.512;6.626;2023-08-20T10:14:13;97314.41;;;29.90;40.31
60228;BME280;46091;46.512;6.626;2023-08-20T10:16:17;97313.81;;;29.93;40.34
60228;BME280;46091;46.512;6.626;2023-08-20T10:18:22;97320.06;;;29.94;39.82
60228;BME280;46091;46.512;6.626;2023-08-20T10:20:28;97317.03;;;29.95;39.80
60228;BME280;46091;46.512;6.626;2023-08-20T10:22:35;97316.41;;;29.98;39.73
60228;BME280;46091;46.512;6.626;2023-08-20T10:24:41;97310.34;;;30.01;39.44
60228;BME280;46091;46.512;6.626;2023-08-20T10:26:45;97311.97;;;30.02;39.36
60228;BME280;46091;46.512;6.626;2023-08-20T10:28:48;97312.19;;;30.06;39.31
60228;BME280;46091;46.512;6.626;2023-08-20T10:31:06;97313.50;;;30.08;39.02
60228;BME280;46091;46.512;6.626;2023-08-20T10:33:09;97313.97;;;30.10;39.06
60228;BME280;46091;46.512;6.626;2023-08-20T10:35:17;97308.75;;;30.14;39.13
60228;BME280;46091;46.512;6.626;2023-08-20T10:37:27;97309.56;;;30.14;39.28
60228;BME280;46091;46.512;6.626;2023-08-20T10:39:30;97313.09;;;30.15;39.36
60228;BME280;46091;46.512;6.626;2023-08-20T10:41:33;97301.88;;;30.17;39.24
60228;BME280;46091;46.512;6.626;2023-08-20T10:43:38;97311.97;;;30.16;39.22
60228;BME280;46091;46.512;6.626;2023-08-20T10:45:43;97314.38;;;30.18;39.43
60228;BME280;46091;46.512;6.626;2023-08-20T10:47:47;97307.19;;;30.22;39.39
60228;BME280;46091;46.512;6.626;2023-08-20T10:49:51;97297.88;;;30.23;39.26
60228;BME280;46091;46.512;6.626;2023-08-20T10:51:54;97292.97;;;30.25;39.54
60228;BME280;46091;46.512;6.626;2023-08-20T10:54:04;97302.44;;;30.27;39.56
60228;BME280;46091;46.512;6.626;2023-08-20T10:56:09;97298.28;;;30.30;39.64
60228;BME280;46091;46.512;6.626;2023-08-20T10:58:12;97293.31;;;30.32;39.68